Teigen, Montana
Current Conditions -  °F | °C
As of 1:15 PM on Sunday 23 Nov 2014 (Local Time) from KMVH Reporting Station
Clear Clear  
Wind Chill: 28°   Ceiling: Unl
Heat Index: 39°   Visibility: 10mi
Dew Point: 14°   Wind: 24mph
Humidity: 36%   Direction: 310°NW
Pressure: 29.83"   Gusts: 39mph
Location:  47.04°N, 108.6°W
Report Text: KMVH 232015Z AUTO 31021G34KT 10SM CLR 04/M10 A2983 RMK A01
Loading
Personal Weather Stations






























Interactive Weather Map New forecast layout! Learn more

10-Day Weather Forecast

Advertisements
Track Severe Weather on mobile